Time;durP1;ratioP1;P1;durP2;ratioP2;P2;SDS_P1;SDS_P2;PMS_P1;PMS_P2;Temp;Humidity;BMP_temperature;BMP_pressure;BME280_temperature;BME280_humidity;BME280_pressure;Samples;Min_cycle;Max_cycle;Signal;HPM_P1;HPM_P2
2022/08/17 00:00:24;;;;;;;33.93;32.13;;;20.50;72.80;;;;;;5039818;28;21091;-70
2022/08/17 00:03:01;;;;;;;34.10;32.40;;;20.40;72.90;;;;;;5051168;28;20917;-68
2022/08/17 00:05:29;;;;;;;35.40;33.20;;;20.40;72.70;;;;;;5047913;28;20921;-68
2022/08/17 00:07:56;;;;;;;36.77;34.87;;;20.40;72.70;;;;;;5048534;28;21012;-68
2022/08/17 00:10:23;;;;;;;36.27;34.47;;;20.40;72.80;;;;;;5047028;28;20541;-68
2022/08/17 00:12:50;;;;;;;36.20;34.20;;;20.40;72.80;;;;;;5051009;28;20558;-69
2022/08/17 00:15:21;;;;;;;37.03;35.03;;;20.30;73.00;;;;;;5044539;28;20563;-68
2022/08/17 00:17:49;;;;;;;36.63;34.83;;;20.30;73.00;;;;;;5049089;28;20456;-68
2022/08/17 00:20:17;;;;;;;36.53;34.70;;;20.30;73.10;;;;;;5041205;28;21074;-71
2022/08/17 00:22:44;;;;;;;36.33;34.60;;;20.30;73.10;;;;;;5048828;28;20536;-68
2022/08/17 00:25:14;;;;;;;36.33;34.23;;;20.30;73.10;;;;;;5048983;28;20579;-69
2022/08/17 00:27:41;;;;;;;37.33;35.43;;;20.20;73.20;;;;;;5048567;28;20456;-68
2022/08/17 00:30:11;;;;;;;35.27;33.40;;;20.20;73.20;;;;;;5038340;28;20558;-70
2022/08/17 00:32:43;;;;;;;35.13;33.23;;;20.20;73.20;;;;;;5047323;28;20545;-68
2022/08/17 00:35:12;;;;;;;35.27;33.47;;;20.20;73.20;;;;;;5045499;28;20459;-68
2022/08/17 00:37:44;;;;;;;36.20;34.30;;;20.20;73.20;;;;;;5045413;28;20498;-68
2022/08/17 00:40:14;;;;;;;35.17;33.03;;;20.10;73.00;;;;;;5034570;28;21064;-70
2022/08/17 00:42:42;;;;;;;35.53;33.83;;;20.00;73.40;;;;;;5048332;28;20588;-68
2022/08/17 00:45:13;;;;;;;36.50;34.70;;;20.00;73.60;;;;;;5048154;28;20472;-68
2022/08/17 00:47:42;;;;;;;35.13;33.00;;;20.00;73.60;;;;;;5037862;28;20879;-68
2022/08/17 00:50:13;;;;;;;35.10;33.20;;;20.00;73.40;;;;;;5036763;28;20809;-68
2022/08/17 00:52:45;;;;;;;36.80;34.80;;;20.00;73.30;;;;;;5035166;28;20562;-68
2022/08/17 00:55:13;;;;;;;36.83;34.97;;;20.00;73.60;;;;;;5036426;28;20510;-69
2022/08/17 00:57:43;;;;;;;36.20;34.30;;;19.90;73.60;;;;;;5047383;28;20472;-66
2022/08/17 01:00:15;;;;;;;35.47;33.70;;;19.90;73.70;;;;;;5037704;28;20506;-66
2022/08/17 01:02:46;;;;;;;36.23;34.47;;;19.80;73.70;;;;;;5047132;28;20485;-66
2022/08/17 01:05:17;;;;;;;36.07;34.03;;;19.90;73.60;;;;;;5047750;28;20572;-66
2022/08/17 01:07:46;;;;;;;35.90;34.20;;;19.90;73.70;;;;;;5048665;28;20540;-66
2022/08/17 01:10:15;;;;;;;37.03;35.20;;;19.80;74.10;;;;;;5045906;28;20562;-66
2022/08/17 01:12:42;;;;;;;36.97;35.17;;;19.70;74.50;;;;;;5049369;28;21026;-66
2022/08/17 01:15:09;;;;;;;36.17;34.30;;;19.60;74.70;;;;;;5038141;28;20549;-66
2022/08/17 01:17:36;;;;;;;36.67;34.73;;;19.60;74.90;;;;;;5046106;28;20499;-66
2022/08/17 01:20:05;;;;;;;35.50;33.70;;;19.60;74.90;;;;;;5039669;28;21023;-66
2022/08/17 01:22:34;;;;;;;35.93;33.90;;;19.60;75.10;;;;;;5044349;28;20486;-66
2022/08/17 01:25:03;;;;;;;36.83;34.87;;;19.60;74.90;;;;;;5048355;28;20852;-66
2022/08/17 01:27:30;;;;;;;37.07;35.17;;;19.50;75.10;;;;;;5047336;28;21188;-66
2022/08/17 01:30:02;;;;;;;36.10;34.10;;;19.50;75.30;;;;;;5042968;28;20549;-66
2022/08/17 01:32:30;;;;;;;38.10;36.20;;;19.40;75.30;;;;;;5043516;28;20481;-66
2022/08/17 01:34:57;;;;;;;36.20;34.53;;;19.50;75.10;;;;;;5037796;28;20486;-66
2022/08/17 01:37:30;;;;;;;37.50;35.60;;;19.50;75.20;;;;;;5046270;28;20561;-66
2022/08/17 01:40:03;;;;;;;38.20;36.40;;;19.40;75.30;;;;;;5036202;28;21139;-65
2022/08/17 01:42:36;;;;;;;38.90;37.00;;;19.40;75.50;;;;;;5043286;28;20457;-66
2022/08/17 01:45:07;;;;;;;41.00;38.90;;;19.40;75.60;;;;;;5045192;28;20484;-66
2022/08/17 01:47:36;;;;;;;40.70;38.40;;;19.40;75.40;;;;;;5044250;28;20568;-66
2022/08/17 01:50:09;;;;;;;37.07;35.17;;;19.40;75.50;;;;;;5044621;28;20522;-66
2022/08/17 01:52:36;;;;;;;36.47;34.43;;;19.40;75.40;;;;;;5041235;28;20494;-66
2022/08/17 01:55:06;;;;;;;35.93;34.23;;;19.40;75.30;;;;;;5049293;28;20540;-68
2022/08/17 01:57:33;;;;;;;36.57;34.80;;;19.40;75.30;;;;;;5043170;28;20962;-68
2022/08/17 02:00:00;;;;;;;37.17;35.37;;;19.40;75.30;;;;;;5042989;28;20461;-68
2022/08/17 02:02:28;;;;;;;40.43;38.53;;;19.40;75.40;;;;;;5045767;28;21029;-68
2022/08/17 02:04:55;;;;;;;37.77;35.93;;;19.40;75.60;;;;;;5035675;28;20457;-68
2022/08/17 02:07:22;;;;;;;38.50;36.50;;;19.40;75.70;;;;;;5042671;28;20456;-68
2022/08/17 02:09:49;;;;;;;42.00;39.80;;;19.40;75.60;;;;;;5046903;28;20536;-68
2022/08/17 02:12:18;;;;;;;38.43;36.50;;;19.30;75.80;;;;;;5045817;28;20458;-68
2022/08/17 02:14:45;;;;;;;38.60;36.70;;;19.30;75.80;;;;;;5039107;28;20482;-69
2022/08/17 02:17:12;;;;;;;40.47;38.40;;;19.40;75.70;;;;;;5032854;28;20457;-70
2022/08/17 02:19:39;;;;;;;39.97;37.77;;;19.40;75.60;;;;;;5045615;28;20461;-68
2022/08/17 02:22:06;;;;;;;40.97;39.03;;;19.40;75.40;;;;;;5044467;28;20480;-68
2022/08/17 02:24:35;;;;;;;39.10;37.10;;;19.40;75.40;;;;;;5043241;28;20518;-68
2022/08/17 02:27:02;;;;;;;42.43;40.40;;;19.40;75.40;;;;;;5046627;28;20540;-68
2022/08/17 02:29:31;;;;;;;45.00;42.63;;;19.40;75.50;;;;;;5044197;28;20458;-68
2022/08/17 02:31:59;;;;;;;39.90;37.97;;;19.50;75.60;;;;;;5046222;28;20489;-68
2022/08/17 02:34:26;;;;;;;37.67;35.67;;;19.40;75.60;;;;;;5036165;28;20921;-66
2022/08/17 02:36:53;;;;;;;48.57;46.23;;;19.40;75.70;;;;;;5036062;28;20988;-66
2022/08/17 02:39:20;;;;;;;36.73;34.90;;;19.40;75.60;;;;;;5035531;28;20481;-66
2022/08/17 02:41:47;;;;;;;39.00;36.57;;;19.50;75.50;;;;;;5041294;28;20472;-66
2022/08/17 02:44:14;;;;;;;41.00;38.90;;;19.40;75.80;;;;;;5037734;28;20484;-66
2022/08/17 02:46:43;;;;;;;40.47;38.47;;;19.40;75.90;;;;;;5043062;28;20472;-66
2022/08/17 02:49:09;;;;;;;48.20;45.90;;;19.40;75.90;;;;;;5048329;28;20573;-66
2022/08/17 02:51:36;;;;;;;44.53;42.33;;;19.40;75.90;;;;;;5045347;28;20562;-66
2022/08/17 02:54:03;;;;;;;37.30;35.50;;;19.40;76.00;;;;;;5042942;28;20545;-66
2022/08/17 02:56:30;;;;;;;38.87;37.03;;;19.50;75.60;;;;;;5043212;28;20507;-68
2022/08/17 02:58:57;;;;;;;57.73;54.83;;;19.50;75.50;;;;;;5035382;28;20462;-68
2022/08/17 03:01:24;;;;;;;37.13;35.33;;;19.50;75.50;;;;;;5044561;28;20563;-71
2022/08/17 03:03:52;;;;;;;42.73;40.70;;;19.50;75.60;;;;;;5045221;28;20545;-68
2022/08/17 03:06:19;;;;;;;41.53;39.63;;;19.40;75.90;;;;;;5049327;28;20903;-66
2022/08/17 03:08:47;;;;;;;42.10;40.00;;;19.40;76.10;;;;;;5037826;28;20537;-66
2022/08/17 03:11:15;;;;;;;54.40;51.70;;;19.40;76.10;;;;;;5045293;28;20552;-66
2022/08/17 03:13:42;;;;;;;50.00;47.80;;;19.30;76.30;;;;;;5050792;28;20542;-66
2022/08/17 03:16:09;;;;;;;52.63;50.00;;;19.40;76.20;;;;;;5051540;28;20545;-66
2022/08/17 03:18:36;;;;;;;41.53;39.43;;;19.30;76.30;;;;;;5042812;28;20544;-66
2022/08/17 03:21:07;;;;;;;42.97;40.77;;;19.30;76.50;;;;;;5047555;28;20472;-66
2022/08/17 03:23:39;;;;;;;51.30;48.80;;;19.30;76.50;;;;;;5050610;28;20488;-66
2022/08/17 03:26:07;;;;;;;37.50;35.50;;;19.30;76.50;;;;;;5048071;28;20576;-66
2022/08/17 03:28:34;;;;;;;49.13;46.63;;;19.30;76.80;;;;;;5033753;28;20473;-66
2022/08/17 03:31:01;;;;;;;40.00;38.10;;;19.20;77.00;;;;;;5043201;28;20471;-65
2022/08/17 03:33:28;;;;;;;47.63;45.17;;;19.10;77.30;;;;;;5049194;28;20462;-66
2022/08/17 03:35:56;;;;;;;55.93;53.33;;;19.00;77.60;;;;;;5042981;28;21017;-66
2022/08/17 03:38:24;;;;;;;61.30;58.17;;;19.10;77.60;;;;;;5048508;28;21236;-66
2022/08/17 03:40:52;;;;;;;52.77;50.03;;;19.00;77.60;;;;;;5047181;28;20554;-66
2022/08/17 03:43:21;;;;;;;46.10;43.83;;;19.10;77.50;;;;;;5043007;28;20452;-66
2022/08/17 03:56:59;;;;;;;53.13;50.53;;;19.30;76.80;;;;;;5049264;28;20448;-66
2022/08/17 03:59:25;;;;;;;58.63;55.77;;;19.20;77.00;;;;;;5042976;28;20491;-66
2022/08/17 04:01:55;;;;;;;39.73;37.90;;;19.20;77.00;;;;;;5050060;28;20910;-65
2022/08/17 04:04:22;;;;;;;52.83;50.20;;;19.20;76.90;;;;;;5036888;28;20526;-65
2022/08/17 04:06:49;;;;;;;54.93;52.20;;;19.20;76.90;;;;;;5042642;28;20567;-65
2022/08/17 04:09:18;;;;;;;43.80;41.73;;;19.30;76.90;;;;;;5048671;28;20533;-66
2022/08/17 04:11:45;;;;;;;47.10;44.70;;;19.30;76.90;;;;;;5047374;28;20603;-65
2022/08/17 04:14:12;;;;;;;45.63;43.40;;;19.30;76.70;;;;;;5040450;28;20476;-66
2022/08/17 04:16:39;;;;;;;42.27;40.27;;;19.30;76.80;;;;;;5040390;28;20451;-66
2022/08/17 04:19:06;;;;;;;54.87;52.23;;;19.20;76.90;;;;;;5042153;28;20820;-66
2022/08/17 04:21:34;;;;;;;45.87;43.70;;;19.20;77.20;;;;;;5047285;28;20483;-66
2022/08/17 04:24:01;;;;;;;40.50;38.40;;;19.10;77.40;;;;;;5046941;28;20901;-66
2022/08/17 04:26:30;;;;;;;48.27;45.60;;;19.10;77.40;;;;;;5050365;28;20480;-70
2022/08/17 04:28:58;;;;;;;41.40;39.20;;;19.10;77.30;;;;;;5037589;28;21042;-66
2022/08/17 04:31:26;;;;;;;47.87;45.63;;;19.20;77.20;;;;;;5036942;28;20849;-66
2022/08/17 04:33:54;;;;;;;44.10;42.10;;;19.20;77.20;;;;;;5033342;28;20462;-69
2022/08/17 04:36:21;;;;;;;66.87;63.57;;;19.20;77.00;;;;;;5043520;28;20436;-68
2022/08/17 04:38:48;;;;;;;41.43;39.33;;;19.20;76.80;;;;;;5047418;28;20548;-72
2022/08/17 04:44:03;;;;;;;50.30;47.53;;;19.30;76.40;;;;;;5037291;28;20457;-70
2022/08/17 04:46:32;;;;;;;41.08;38.92;;;19.30;76.30;;;;;;5037295;28;20468;-68
2022/08/17 04:49:02;;;;;;;54.10;51.40;;;19.40;76.30;;;;;;5046345;28;20205;-68
2022/08/17 04:51:32;;;;;;;44.63;42.23;;;19.30;76.40;;;;;;5037198;28;20501;-67
2022/08/17 04:54:01;;;;;;;42.63;40.63;;;19.40;76.40;;;;;;5044342;28;20485;-68
2022/08/17 04:56:29;;;;;;;47.87;45.67;;;19.40;76.60;;;;;;5042636;28;20531;-68
2022/08/17 04:58:59;;;;;;;46.20;43.67;;;19.30;76.60;;;;;;5037760;28;20553;-68
2022/08/17 05:01:30;;;;;;;54.20;51.27;;;19.40;76.60;;;;;;5043341;28;20700;-69
2022/08/17 05:03:59;;;;;;;45.93;43.80;;;19.50;76.00;;;;;;5047361;28;20582;-69
2022/08/17 05:06:27;;;;;;;50.27;47.70;;;19.60;75.80;;;;;;5047098;28;20588;-67
2022/08/17 05:08:54;;;;;;;42.00;40.00;;;19.60;75.50;;;;;;5039345;28;20466;-68
2022/08/17 05:11:22;;;;;;;53.23;50.43;;;19.60;75.50;;;;;;5038855;28;20574;-68
2022/08/17 05:13:49;;;;;;;37.40;35.30;;;19.60;75.60;;;;;;5038785;28;20549;-68
2022/08/17 05:16:17;;;;;;;39.33;37.23;;;19.50;75.70;;;;;;5047090;28;20461;-68
2022/08/17 05:18:46;;;;;;;36.67;34.80;;;19.50;75.70;;;;;;5047806;28;20492;-67
2022/08/17 05:21:14;;;;;;;39.50;37.50;;;19.60;75.60;;;;;;5033830;28;20503;-67
2022/08/17 05:23:41;;;;;;;39.73;37.73;;;19.60;75.50;;;;;;5045459;28;20540;-67
2022/08/17 05:26:09;;;;;;;44.33;41.63;;;19.60;75.50;;;;;;5041751;28;21057;-67
2022/08/17 05:28:36;;;;;;;41.13;39.03;;;19.70;75.30;;;;;;5035811;28;20604;-65
2022/08/17 05:31:03;;;;;;;40.07;37.97;;;19.90;75.00;;;;;;5041735;28;21075;-66
2022/08/17 05:33:37;;;;;;;45.57;43.13;;;20.20;74.30;;;;;;5047213;28;20463;-65
2022/08/17 05:36:07;;;;;;;51.13;48.43;;;20.30;73.70;;;;;;5042966;28;20489;-66
2022/08/17 05:38:35;;;;;;;38.67;36.67;;;20.40;73.30;;;;;;5036851;28;20562;-65
2022/08/17 05:41:05;;;;;;;46.47;44.03;;;20.50;72.70;;;;;;5045341;28;20468;-66
2022/08/17 05:43:35;;;;;;;51.53;48.80;;;20.60;72.50;;;;;;5045365;28;20465;-66
2022/08/17 05:46:05;;;;;;;44.97;42.37;;;20.80;71.90;;;;;;5038938;28;20458;-66
2022/08/17 05:48:38;;;;;;;38.67;36.67;;;20.90;71.80;;;;;;5041780;28;21313;-65
2022/08/17 05:51:39;;;;;;;48.93;46.33;;;21.10;71.30;;;;;;5030586;28;20538;-66
2022/08/17 05:54:28;;;;;;;39.07;36.87;;;21.40;70.30;;;;;;5033561;28;21125;-65
2022/08/17 05:57:07;;;;;;;39.40;37.17;;;22.00;68.50;;;;;;5033882;28;20939;-65
2022/08/17 05:59:44;;;;;;;49.07;46.57;;;22.00;68.30;;;;;;5035527;28;20448;-66
2022/08/17 06:02:29;;;;;;;38.27;36.17;;;22.20;68.10;;;;;;5040948;28;20511;-65
2022/08/17 06:05:14;;;;;;;45.20;42.70;;;22.40;67.00;;;;;;5037882;28;20448;-66
2022/08/17 06:07:49;;;;;;;46.97;43.93;;;22.50;66.70;;;;;;5038315;28;20575;-65
2022/08/17 06:10:26;;;;;;;41.40;39.10;;;22.70;66.10;;;;;;5043928;28;20593;-65
2022/08/17 06:13:05;;;;;;;41.17;39.07;;;22.80;65.70;;;;;;5039642;28;20451;-66
2022/08/17 06:15:41;;;;;;;46.23;43.73;;;22.90;65.50;;;;;;5043068;28;20527;-66
2022/08/17 06:18:10;;;;;;;42.77;40.27;;;22.80;65.50;;;;;;5045592;28;20534;-66
2022/08/17 06:20:45;;;;;;;43.90;41.47;;;22.70;66.20;;;;;;5047941;28;20575;-66
2022/08/17 06:23:25;;;;;;;42.13;39.70;;;22.80;66.10;;;;;;5036972;28;20500;-66
2022/08/17 06:25:59;;;;;;;54.73;51.53;;;22.90;66.00;;;;;;5042231;28;20870;-66
2022/08/17 06:28:31;;;;;;;49.87;47.33;;;23.00;65.40;;;;;;5048566;28;20544;-70
2022/08/17 06:31:05;;;;;;;55.47;52.67;;;23.10;64.90;;;;;;5041747;28;20484;-67
2022/08/17 06:33:36;;;;;;;46.13;43.37;;;23.20;64.30;;;;;;5051797;28;20463;-69
2022/08/17 06:36:16;;;;;;;38.57;36.37;;;23.50;63.80;;;;;;5042627;28;20886;-66
2022/08/17 06:38:57;;;;;;;42.17;39.77;;;23.70;63.20;;;;;;5040365;28;20871;-66
2022/08/17 06:41:33;;;;;;;38.73;36.53;;;23.90;62.50;;;;;;5046387;28;20561;-66
2022/08/17 06:44:12;;;;;;;40.83;38.33;;;23.90;62.10;;;;;;5042017;28;20548;-66
2022/08/17 06:46:43;;;;;;;40.87;37.57;;;23.90;61.60;;;;;;5039533;28;20473;-66
2022/08/17 06:49:20;;;;;;;43.53;41.03;;;24.00;61.90;;;;;;5047420;28;20449;-66
2022/08/17 06:51:52;;;;;;;47.87;45.27;;;24.20;61.10;;;;;;5049929;28;20991;-66
2022/08/17 06:54:31;;;;;;;41.83;38.70;;;24.50;60.30;;;;;;5044233;28;20487;-66
2022/08/17 06:57:06;;;;;;;41.00;38.33;;;24.70;60.00;;;;;;5040680;28;20455;-66
2022/08/17 06:59:40;;;;;;;55.07;51.87;;;25.10;59.30;;;;;;5043149;28;20486;-70
2022/08/17 07:02:13;;;;;;;44.50;41.93;;;25.40;59.10;;;;;;5045736;28;20482;-70
2022/08/17 07:04:40;;;;;;;50.67;47.60;;;25.60;58.50;;;;;;5036810;28;20530;-73
2022/08/17 07:09:54;;;;;;;55.47;52.40;;;25.90;58.00;;;;;;5041167;28;20444;-68
2022/08/17 07:12:26;;;;;;;47.83;45.13;;;26.20;57.50;;;;;;5039321;28;20460;-68
2022/08/17 07:15:00;;;;;;;44.20;41.50;;;26.10;57.50;;;;;;5046396;28;20487;-68
2022/08/17 07:17:27;;;;;;;54.30;51.30;;;26.20;57.60;;;;;;5040410;28;20545;-70
2022/08/17 07:20:04;;;;;;;53.30;50.50;;;26.20;57.70;;;;;;5045546;28;21014;-66
2022/08/17 07:22:40;;;;;;;46.60;44.20;;;26.10;57.30;;;;;;5045603;28;20463;-66
2022/08/17 07:25:11;;;;;;;48.83;46.43;;;26.20;57.00;;;;;;5040659;28;20533;-66
2022/08/17 07:27:40;;;;;;;45.77;43.20;;;26.30;57.30;;;;;;5046581;28;20483;-65
2022/08/17 07:30:09;;;;;;;58.50;55.10;;;26.20;57.30;;;;;;5043342;28;20494;-66
2022/08/17 07:32:42;;;;;;;55.33;52.20;;;26.10;57.40;;;;;;5036539;28;20543;-66
2022/08/17 07:35:17;;;;;;;47.90;45.40;;;26.20;57.60;;;;;;5036083;28;20566;-66
2022/08/17 07:37:49;;;;;;;43.67;41.03;;;26.40;56.70;;;;;;5040440;28;20527;-66
2022/08/17 07:40:25;;;;;;;48.33;45.57;;;26.30;56.50;;;;;;5034929;28;21427;-66
2022/08/17 07:43:18;;;;;;;47.70;45.10;;;26.30;56.50;;;;;;5041037;28;21226;-66
2022/08/17 07:49:14;;;;;;;55.27;52.03;;;26.10;56.80;;;;;;5033714;28;20874;-66
2022/08/17 07:51:58;;;;;;;49.67;47.23;;;26.10;56.50;;;;;;5041763;28;20575;-66
2022/08/17 07:54:29;;;;;;;54.30;51.07;;;26.20;56.00;;;;;;5045421;28;20534;-66
2022/08/17 07:57:00;;;;;;;49.13;46.37;;;26.20;56.00;;;;;;5046340;28;20491;-66
2022/08/17 07:59:29;;;;;;;53.43;50.40;;;26.30;55.80;;;;;;5041259;28;20470;-66
2022/08/17 08:02:04;;;;;;;50.40;47.87;;;26.50;55.70;;;;;;5040090;28;21043;-66
2022/08/17 08:04:35;;;;;;;49.30;46.80;;;26.50;55.10;;;;;;5036124;28;20945;-66
2022/08/17 08:07:05;;;;;;;49.60;47.23;;;26.60;55.60;;;;;;5045148;28;21171;-66
2022/08/17 08:09:39;;;;;;;51.53;48.80;;;26.80;55.30;;;;;;5043465;28;20452;-66
2022/08/17 08:12:25;;;;;;;40.97;38.90;;;26.90;55.10;;;;;;5034504;28;20972;-66
2022/08/17 08:14:55;;;;;;;43.13;40.53;;;27.00;54.90;;;;;;5032550;28;20466;-66
2022/08/17 08:17:28;;;;;;;44.90;42.30;;;27.20;54.60;;;;;;5045257;28;20543;-66
2022/08/17 08:19:55;;;;;;;49.30;46.60;;;27.30;54.60;;;;;;5040903;28;20467;-66
2022/08/17 08:22:29;;;;;;;55.90;53.10;;;27.40;54.40;;;;;;5041509;28;20468;-66
2022/08/17 08:25:06;;;;;;;46.67;43.80;;;27.50;53.90;;;;;;5035636;28;21242;-66
2022/08/17 08:27:44;;;;;;;46.13;43.53;;;27.70;53.70;;;;;;5043953;28;20562;-66
2022/08/17 08:30:15;;;;;;;45.90;43.40;;;27.80;53.20;;;;;;5041514;28;20994;-66
2022/08/17 08:33:07;;;;;;;51.37;48.57;;;27.90;52.90;;;;;;5044038;28;20976;-68
2022/08/17 08:35:39;;;;;;;66.27;62.40;;;28.00;52.40;;;;;;5044517;28;20534;-69
2022/08/17 08:38:15;;;;;;;50.30;47.70;;;28.10;52.20;;;;;;5041916;28;20461;-69
2022/08/17 08:40:58;;;;;;;44.23;41.83;;;28.20;51.90;;;;;;5044335;28;20503;-70
2022/08/17 08:43:34;;;;;;;49.97;47.40;;;28.10;52.10;;;;;;5046306;28;20470;-67
2022/08/17 08:46:11;;;;;;;52.67;49.87;;;28.00;52.20;;;;;;5040227;28;20474;-66
2022/08/17 08:48:55;;;;;;;49.77;47.10;;;27.80;52.50;;;;;;5039922;28;20558;-67
2022/08/17 08:51:31;;;;;;;48.87;46.43;;;27.80;52.40;;;;;;5042485;28;20482;-68
2022/08/17 08:54:03;;;;;;;44.03;41.83;;;27.70;52.80;;;;;;5043891;28;20538;-66
2022/08/17 08:56:37;;;;;;;45.60;43.20;;;27.60;53.00;;;;;;5046211;28;20969;-66
2022/08/17 08:59:20;;;;;;;53.57;50.67;;;27.60;53.10;;;;;;5036185;28;20562;-67
2022/08/17 09:01:56;;;;;;;50.00;47.40;;;27.40;53.30;;;;;;5040924;28;20479;-66
2022/08/17 09:04:36;;;;;;;43.40;40.67;;;27.30;53.90;;;;;;5037296;28;20459;-66
2022/08/17 09:07:12;;;;;;;46.13;43.50;;;27.30;54.40;;;;;;5035832;28;20582;-66
2022/08/17 09:09:56;;;;;;;44.27;41.87;;;27.20;54.30;;;;;;5041151;28;20531;-66
2022/08/17 09:12:30;;;;;;;41.13;38.90;;;27.30;54.10;;;;;;5041835;28;20451;-66
2022/08/17 09:15:05;;;;;;;48.13;45.73;;;27.30;54.40;;;;;;5044148;28;20577;-66
2022/08/17 09:17:39;;;;;;;48.20;45.60;;;27.30;54.50;;;;;;5037573;28;20548;-66
2022/08/17 09:20:24;;;;;;;49.17;46.30;;;27.30;55.10;;;;;;5043672;28;20474;-66
2022/08/17 09:22:59;;;;;;;42.40;39.97;;;27.30;55.70;;;;;;5038151;28;20541;-66
2022/08/17 09:25:32;;;;;;;45.47;43.00;;;27.30;56.70;;;;;;5040532;28;20940;-66
2022/08/17 09:28:05;;;;;;;52.87;50.07;;;27.20;57.00;;;;;;5031671;28;21251;-66
2022/08/17 09:30:40;;;;;;;55.67;52.47;;;27.20;57.50;;;;;;5044983;28;21098;-66
2022/08/17 09:33:09;;;;;;;59.07;55.77;;;27.20;58.20;;;;;;5040412;28;20880;-66
2022/08/17 09:35:40;;;;;;;49.33;46.37;;;27.20;59.30;;;;;;5038334;28;21017;-66
2022/08/17 09:38:19;;;;;;;46.07;43.57;;;27.10;60.00;;;;;;5045925;28;20451;-66
2022/08/17 09:40:52;;;;;;;47.77;44.93;;;27.00;61.70;;;;;;5046938;28;20475;-66
2022/08/17 09:43:36;;;;;;;41.70;39.50;;;26.80;63.20;;;;;;5041926;28;21031;-66
2022/08/17 09:46:11;;;;;;;56.97;53.63;;;26.60;64.10;;;;;;5037055;28;20543;-66
2022/08/17 09:48:43;;;;;;;50.67;47.87;;;26.40;64.50;;;;;;5041479;28;20475;-66
2022/08/17 09:51:18;;;;;;;48.70;45.77;;;26.30;65.10;;;;;;5046957;28;20482;-66
2022/08/17 09:53:45;;;;;;;42.57;40.17;;;26.20;65.40;;;;;;5043244;28;20865;-66
2022/08/17 09:56:28;;;;;;;45.97;43.47;;;26.30;66.20;;;;;;5046059;28;20969;-66
2022/08/17 09:59:16;;;;;;;46.97;43.77;;;26.20;67.30;;;;;;5040618;28;20565;-66
2022/08/17 10:01:50;;;;;;;50.43;47.70;;;26.10;68.30;;;;;;5042433;28;20502;-66
2022/08/17 10:04:32;;;;;;;56.17;52.93;;;26.10;69.30;;;;;;5045355;28;20497;-68
2022/08/17 10:07:06;;;;;;;47.70;45.00;;;26.10;69.40;;;;;;5041864;28;20455;-68
2022/08/17 10:09:46;;;;;;;50.40;47.60;;;26.00;69.80;;;;;;5034261;28;20512;-67
2022/08/17 10:12:24;;;;;;;46.60;44.20;;;25.80;69.80;;;;;;5038350;28;20489;-68
2022/08/17 10:15:08;;;;;;;51.27;48.57;;;25.70;69.70;;;;;;5036227;28;20463;-67
2022/08/17 10:17:49;;;;;;;53.70;50.80;;;25.80;68.80;;;;;;5036707;28;20460;-68
2022/08/17 10:20:20;;;;;;;42.57;40.30;;;25.90;68.20;;;;;;5043636;28;20479;-69
2022/08/17 10:28:32;;;;;;;46.30;43.60;;;26.50;65.40;;;;;;5034300;28;20479;-68
2022/08/17 10:31:04;;;;;;;43.53;41.20;;;26.50;64.10;;;;;;5044482;28;20578;-68
2022/08/17 10:33:41;;;;;;;49.97;47.00;;;26.60;63.20;;;;;;5033890;28;20463;-68
2022/08/17 10:36:17;;;;;;;41.73;39.47;;;26.60;63.00;;;;;;5042283;28;20465;-69
2022/08/17 10:38:47;;;;;;;47.80;45.07;;;26.50;66.10;;;;;;5043009;28;20466;-66
2022/08/17 10:41:24;;;;;;;46.43;43.90;;;26.50;67.10;;;;;;5040512;28;20477;-66
2022/08/17 10:44:00;;;;;;;54.93;51.97;;;26.50;68.20;;;;;;5033025;28;20961;-66
2022/08/17 10:46:44;;;;;;;50.63;47.83;;;26.40;68.70;;;;;;5038285;28;20817;-66
2022/08/17 10:49:32;;;;;;;42.60;40.20;;;26.60;68.50;;;;;;5037885;28;20562;-66
2022/08/17 10:52:01;;;;;;;43.57;41.17;;;26.40;66.40;;;;;;5039243;28;20506;-66
2022/08/17 10:55:16;;;;;;;47.10;44.40;;;26.30;65.70;;;;;;5046019;28;20450;-66
2022/08/17 10:57:45;;;;;;;45.20;42.70;;;26.30;65.80;;;;;;5024952;28;20532;-66
2022/08/17 11:01:11;;;;;;;42.77;40.47;;;26.10;67.90;;;;;;5043013;28;20521;-66
2022/08/17 11:03:53;;;;;;;63.47;60.33;;;25.90;68.70;;;;;;5031454;28;20460;-66
2022/08/17 11:06:32;;;;;;;53.83;50.83;;;25.80;68.90;;;;;;5038876;28;20498;-66
2022/08/17 11:09:33;;;;;;;52.63;49.77;;;25.70;66.60;;;;;;5048246;28;20480;-66
2022/08/17 11:12:26;;;;;;;45.97;43.30;;;25.70;66.80;;;;;;5033641;28;20510;-66
2022/08/17 11:15:07;;;;;;;55.87;52.63;;;25.70;64.70;;;;;;5045700;28;20461;-66
2022/08/17 11:18:00;;;;;;;56.37;53.43;;;25.60;64.10;;;;;;5046111;28;20463;-66
2022/08/17 11:21:21;;;;;;;54.70;52.00;;;25.60;65.00;;;;;;5038352;28;20484;-66
2022/08/17 11:24:05;;;;;;;42.10;39.93;;;25.60;64.00;;;;;;4999661;28;21012;-66
2022/08/17 11:26:35;;;;;;;43.80;41.70;;;25.40;63.70;;;;;;5038639;28;20491;-66
2022/08/17 11:29:19;;;;;;;45.80;43.40;;;25.30;63.30;;;;;;5041767;28;20555;-66
2022/08/17 11:32:00;;;;;;;44.50;41.93;;;25.30;63.40;;;;;;5040320;28;21039;-69
2022/08/17 11:34:28;;;;;;;56.03;53.13;;;25.30;63.60;;;;;;5039615;28;20559;-68
2022/08/17 11:37:23;;;;;;;46.10;43.83;;;25.30;63.70;;;;;;5043993;28;20464;-68
2022/08/17 11:40:23;;;;;;;43.93;41.73;;;25.20;67.30;;;;;;5009920;28;20522;-68
2022/08/17 11:43:08;;;;;;;48.17;45.47;;;25.00;67.60;;;;;;5036145;28;20821;-68
2022/08/17 11:45:55;;;;;;;44.00;41.47;;;24.90;67.70;;;;;;5045093;28;20551;-66
2022/08/17 11:51:33;;;;;;;48.43;46.03;;;24.90;67.90;;;;;;5048778;28;20846;-67
2022/08/17 11:54:06;;;;;;;38.17;36.30;;;25.00;67.40;;;;;;5036836;28;20550;-66
2022/08/17 11:56:40;;;;;;;41.77;39.50;;;25.20;67.00;;;;;;5044321;28;20563;-66
2022/08/17 11:59:44;;;;;;;48.47;45.97;;;25.20;67.00;;;;;;5033958;28;20472;-68
2022/08/17 12:02:31;;;;;;;49.50;47.10;;;25.20;67.40;;;;;;5041163;28;21274;-67
2022/08/17 12:05:32;;;;;;;41.50;39.50;;;25.00;69.10;;;;;;5041314;28;20466;-66
2022/08/17 12:08:16;;;;;;;48.27;45.03;;;24.70;70.70;;;;;;5031126;28;20458;-68
2022/08/17 12:10:59;;;;;;;42.90;40.50;;;24.70;71.80;;;;;;5037449;28;20483;-67
2022/08/17 12:13:29;;;;;;;53.63;50.83;;;24.70;72.20;;;;;;5038613;28;20539;-67
2022/08/17 12:15:57;;;;;;;51.80;49.10;;;24.80;71.90;;;;;;5044733;28;20543;-67
2022/08/17 12:18:27;;;;;;;39.23;37.23;;;24.80;71.10;;;;;;5035068;28;20546;-67
2022/08/17 12:21:14;;;;;;;41.37;39.03;;;24.90;70.80;;;;;;5043618;28;20471;-67
2022/08/17 12:23:48;;;;;;;46.00;43.67;;;25.30;70.70;;;;;;5043610;28;21311;-67
2022/08/17 12:26:19;;;;;;;40.83;38.57;;;25.70;68.80;;;;;;5037590;28;20468;-66
2022/08/17 12:28:48;;;;;;;48.40;45.73;;;25.70;68.30;;;;;;5037064;28;20574;-66
2022/08/17 12:31:20;;;;;;;42.80;40.70;;;25.80;67.90;;;;;;5043516;28;20910;-67
2022/08/17 12:33:48;;;;;;;60.33;57.23;;;26.00;67.10;;;;;;5035479;28;20551;-67
2022/08/17 12:36:20;;;;;;;56.57;52.60;;;26.20;66.60;;;;;;5044755;28;20451;-69
2022/08/17 12:38:58;;;;;;;48.13;45.13;;;26.50;66.00;;;;;;5041637;28;20475;-73
2022/08/17 12:41:45;;;;;;;52.27;49.37;;;26.70;63.90;;;;;;5043031;28;20486;-70
2022/08/17 12:44:16;;;;;;;52.07;49.10;;;27.00;63.10;;;;;;5042399;28;20539;-73
2022/08/17 12:46:53;;;;;;;60.73;57.20;;;27.10;62.20;;;;;;5044178;28;20454;-69
2022/08/17 12:49:25;;;;;;;62.57;59.47;;;27.00;62.40;;;;;;5044457;28;20601;-70
2022/08/17 12:52:00;;;;;;;48.83;46.33;;;26.90;62.70;;;;;;5044179;28;20795;-70
2022/08/17 12:54:33;;;;;;;41.33;39.23;;;26.90;63.30;;;;;;5038561;28;21564;-71
2022/08/17 12:57:06;;;;;;;46.57;44.37;;;26.80;63.20;;;;;;5041330;28;20465;-70
2022/08/17 12:59:32;;;;;;;51.67;49.03;;;26.90;62.50;;;;;;5043194;28;20502;-70
2022/08/17 13:02:00;;;;;;;53.10;50.33;;;26.90;62.50;;;;;;5045592;28;20563;-69
2022/08/17 13:04:28;;;;;;;43.00;40.77;;;27.00;62.10;;;;;;5046936;28;21126;-69
2022/08/17 13:06:55;;;;;;;48.87;46.40;;;27.40;59.20;;;;;;5040508;28;20466;-70
2022/08/17 13:09:26;;;;;;;57.67;54.70;;;27.80;56.60;;;;;;5048091;28;20487;-70
2022/08/17 13:11:57;;;;;;;42.70;40.40;;;28.30;54.40;;;;;;5046041;28;20472;-70
2022/08/17 13:14:26;;;;;;;59.40;56.30;;;28.60;52.80;;;;;;5046652;28;20518;-72
2022/08/17 13:16:58;;;;;;;58.30;55.40;;;28.40;52.90;;;;;;5037536;28;20459;-69
2022/08/17 13:19:27;;;;;;;55.77;52.97;;;28.20;51.70;;;;;;5033613;28;20463;-70
2022/08/17 13:21:56;;;;;;;48.00;45.57;;;28.50;50.30;;;;;;5030522;28;21216;-70
2022/08/17 13:24:26;;;;;;;46.23;43.83;;;28.90;50.60;;;;;;5042200;28;20459;-69
2022/08/17 13:27:04;;;;;;;44.00;41.70;;;29.20;50.70;;;;;;5038991;28;20877;-70